sensor_id;sensor_type;location;lat;lon;timestamp;P1;durP1;ratioP1;P2;durP2;ratioP2
8572;SDS011;4324;42.012;24.872;2024-01-06T00:00:16;25.53;;;19.20;;
8572;SDS011;4324;42.012;24.872;2024-01-06T00:02:44;28.70;;;21.27;;
8572;SDS011;4324;42.012;24.872;2024-01-06T00:05:11;27.17;;;20.17;;
8572;SDS011;4324;42.012;24.872;2024-01-06T00:07:38;27.93;;;19.87;;
8572;SDS011;4324;42.012;24.872;2024-01-06T00:10:05;29.80;;;20.30;;
8572;SDS011;4324;42.012;24.872;2024-01-06T00:12:33;28.57;;;19.83;;
8572;SDS011;4324;42.012;24.872;2024-01-06T00:15:00;27.53;;;19.53;;
8572;SDS011;4324;42.012;24.872;2024-01-06T00:17:27;25.30;;;19.50;;
8572;SDS011;4324;42.012;24.872;2024-01-06T00:19:56;30.33;;;19.97;;
8572;SDS011;4324;42.012;24.872;2024-01-06T00:22:23;24.67;;;18.93;;
8572;SDS011;4324;42.012;24.872;2024-01-06T00:24:50;25.10;;;19.83;;
8572;SDS011;4324;42.012;24.872;2024-01-06T00:27:17;26.13;;;19.77;;
8572;SDS011;4324;42.012;24.872;2024-01-06T00:29:44;26.03;;;19.10;;
8572;SDS011;4324;42.012;24.872;2024-01-06T00:32:12;25.80;;;20.00;;
8572;SDS011;4324;42.012;24.872;2024-01-06T00:34:39;25.93;;;20.13;;
8572;SDS011;4324;42.012;24.872;2024-01-06T00:37:08;28.43;;;19.53;;
8572;SDS011;4324;42.012;24.872;2024-01-06T00:39:34;29.67;;;19.27;;
8572;SDS011;4324;42.012;24.872;2024-01-06T00:42:01;29.47;;;20.70;;
8572;SDS011;4324;42.012;24.872;2024-01-06T00:44:28;30.43;;;22.27;;
8572;SDS011;4324;42.012;24.872;2024-01-06T00:46:55;42.47;;;27.50;;
8572;SDS011;4324;42.012;24.872;2024-01-06T00:49:22;33.97;;;24.07;;
8572;SDS011;4324;42.012;24.872;2024-01-06T00:51:49;33.33;;;23.33;;
8572;SDS011;4324;42.012;24.872;2024-01-06T00:54:17;28.77;;;22.10;;
8572;SDS011;4324;42.012;24.872;2024-01-06T00:56:44;30.43;;;20.20;;
8572;SDS011;4324;42.012;24.872;2024-01-06T00:59:11;27.80;;;19.87;;
8572;SDS011;4324;42.012;24.872;2024-01-06T01:01:38;31.20;;;20.43;;
8572;SDS011;4324;42.012;24.872;2024-01-06T01:04:05;30.83;;;21.90;;
8572;SDS011;4324;42.012;24.872;2024-01-06T01:06:32;30.30;;;21.83;;
8572;SDS011;4324;42.012;24.872;2024-01-06T01:08:59;30.43;;;21.47;;
8572;SDS011;4324;42.012;24.872;2024-01-06T01:11:27;28.67;;;20.07;;
8572;SDS011;4324;42.012;24.872;2024-01-06T01:13:54;27.70;;;19.67;;
8572;SDS011;4324;42.012;24.872;2024-01-06T01:16:21;28.90;;;20.73;;
8572;SDS011;4324;42.012;24.872;2024-01-06T01:18:49;27.03;;;18.93;;
8572;SDS011;4324;42.012;24.872;2024-01-06T01:21:16;25.27;;;19.33;;
8572;SDS011;4324;42.012;24.872;2024-01-06T01:23:43;26.27;;;20.70;;
8572;SDS011;4324;42.012;24.872;2024-01-06T01:26:10;26.23;;;19.70;;
8572;SDS011;4324;42.012;24.872;2024-01-06T01:28:39;26.17;;;19.83;;
8572;SDS011;4324;42.012;24.872;2024-01-06T01:31:06;28.07;;;21.33;;
8572;SDS011;4324;42.012;24.872;2024-01-06T01:33:33;28.83;;;19.30;;
8572;SDS011;4324;42.012;24.872;2024-01-06T01:36:00;27.83;;;20.20;;
8572;SDS011;4324;42.012;24.872;2024-01-06T01:38:27;27.73;;;20.87;;
8572;SDS011;4324;42.012;24.872;2024-01-06T01:40:53;27.83;;;19.73;;
8572;SDS011;4324;42.012;24.872;2024-01-06T01:43:20;23.37;;;19.60;;
8572;SDS011;4324;42.012;24.872;2024-01-06T01:45:50;26.03;;;19.27;;
8572;SDS011;4324;42.012;24.872;2024-01-06T01:48:19;27.80;;;19.03;;
8572;SDS011;4324;42.012;24.872;2024-01-06T01:50:47;19.43;;;14.47;;
8572;SDS011;4324;42.012;24.872;2024-01-06T01:53:14;19.10;;;13.97;;
8572;SDS011;4324;42.012;24.872;2024-01-06T01:55:42;21.33;;;16.10;;
8572;SDS011;4324;42.012;24.872;2024-01-06T01:58:11;31.27;;;17.10;;
8572;SDS011;4324;42.012;24.872;2024-01-06T02:00:39;31.33;;;16.50;;
8572;SDS011;4324;42.012;24.872;2024-01-06T02:03:07;25.30;;;15.43;;
8572;SDS011;4324;42.012;24.872;2024-01-06T02:05:37;21.10;;;15.23;;
8572;SDS011;4324;42.012;24.872;2024-01-06T02:08:04;21.53;;;15.03;;
8572;SDS011;4324;42.012;24.872;2024-01-06T02:10:32;17.43;;;12.73;;
8572;SDS011;4324;42.012;24.872;2024-01-06T02:13:06;20.43;;;14.40;;
8572;SDS011;4324;42.012;24.872;2024-01-06T02:15:34;18.50;;;14.27;;
8572;SDS011;4324;42.012;24.872;2024-01-06T02:18:01;22.67;;;15.13;;
8572;SDS011;4324;42.012;24.872;2024-01-06T02:20:29;18.90;;;13.57;;
8572;SDS011;4324;42.012;24.872;2024-01-06T02:22:58;17.27;;;13.80;;
8572;SDS011;4324;42.012;24.872;2024-01-06T02:25:26;19.03;;;12.70;;
8572;SDS011;4324;42.012;24.872;2024-01-06T02:27:53;17.37;;;12.07;;
8572;SDS011;4324;42.012;24.872;2024-01-06T02:30:19;17.37;;;12.67;;
8572;SDS011;4324;42.012;24.872;2024-01-06T02:32:46;16.40;;;12.03;;
8572;SDS011;4324;42.012;24.872;2024-01-06T02:35:13;20.17;;;12.27;;
8572;SDS011;4324;42.012;24.872;2024-01-06T02:37:40;18.10;;;12.47;;
8572;SDS011;4324;42.012;24.872;2024-01-06T02:40:10;16.67;;;12.13;;
8572;SDS011;4324;42.012;24.872;2024-01-06T02:42:37;17.17;;;10.90;;
8572;SDS011;4324;42.012;24.872;2024-01-06T02:45:04;14.80;;;9.97;;
8572;SDS011;4324;42.012;24.872;2024-01-06T02:47:33;12.33;;;9.83;;
8572;SDS011;4324;42.012;24.872;2024-01-06T02:49:59;16.57;;;12.20;;
8572;SDS011;4324;42.012;24.872;2024-01-06T02:52:26;17.63;;;12.30;;
8572;SDS011;4324;42.012;24.872;2024-01-06T02:54:53;15.50;;;12.20;;
8572;SDS011;4324;42.012;24.872;2024-01-06T02:57:21;19.10;;;12.13;;
8572;SDS011;4324;42.012;24.872;2024-01-06T02:59:48;16.40;;;11.10;;
8572;SDS011;4324;42.012;24.872;2024-01-06T03:02:16;23.47;;;13.93;;
8572;SDS011;4324;42.012;24.872;2024-01-06T03:04:43;26.30;;;15.60;;
8572;SDS011;4324;42.012;24.872;2024-01-06T03:07:10;31.63;;;19.50;;
8572;SDS011;4324;42.012;24.872;2024-01-06T03:09:37;28.73;;;17.60;;
8572;SDS011;4324;42.012;24.872;2024-01-06T03:12:05;26.53;;;16.23;;
8572;SDS011;4324;42.012;24.872;2024-01-06T03:14:34;25.47;;;14.57;;
8572;SDS011;4324;42.012;24.872;2024-01-06T03:17:01;22.50;;;13.53;;
8572;SDS011;4324;42.012;24.872;2024-01-06T03:19:28;17.60;;;12.23;;
8572;SDS011;4324;42.012;24.872;2024-01-06T03:21:55;12.50;;;9.40;;
8572;SDS011;4324;42.012;24.872;2024-01-06T03:24:23;8.53;;;6.63;;
8572;SDS011;4324;42.012;24.872;2024-01-06T03:26:51;8.70;;;6.47;;
8572;SDS011;4324;42.012;24.872;2024-01-06T03:29:18;10.57;;;6.47;;
8572;SDS011;4324;42.012;24.872;2024-01-06T03:31:46;10.47;;;7.97;;
8572;SDS011;4324;42.012;24.872;2024-01-06T03:34:13;10.40;;;7.90;;
8572;SDS011;4324;42.012;24.872;2024-01-06T03:36:40;10.00;;;6.90;;
8572;SDS011;4324;42.012;24.872;2024-01-06T03:39:08;8.53;;;6.60;;
8572;SDS011;4324;42.012;24.872;2024-01-06T03:41:35;7.10;;;5.43;;
8572;SDS011;4324;42.012;24.872;2024-01-06T03:44:03;5.00;;;4.37;;
8572;SDS011;4324;42.012;24.872;2024-01-06T03:46:30;7.93;;;5.00;;
8572;SDS011;4324;42.012;24.872;2024-01-06T03:48:58;7.70;;;5.43;;
8572;SDS011;4324;42.012;24.872;2024-01-06T03:51:25;9.03;;;6.67;;
8572;SDS011;4324;42.012;24.872;2024-01-06T03:53:52;17.07;;;13.63;;
8572;SDS011;4324;42.012;24.872;2024-01-06T03:56:19;11.47;;;9.10;;
8572;SDS011;4324;42.012;24.872;2024-01-06T03:58:46;15.97;;;9.43;;
8572;SDS011;4324;42.012;24.872;2024-01-06T04:01:13;15.33;;;9.90;;
8572;SDS011;4324;42.012;24.872;2024-01-06T04:03:40;12.73;;;9.53;;
8572;SDS011;4324;42.012;24.872;2024-01-06T04:06:08;11.10;;;9.07;;
8572;SDS011;4324;42.012;24.872;2024-01-06T04:08:36;16.43;;;10.17;;
8572;SDS011;4324;42.012;24.872;2024-01-06T04:11:03;15.87;;;9.37;;
8572;SDS011;4324;42.012;24.872;2024-01-06T04:13:30;16.97;;;8.77;;
8572;SDS011;4324;42.012;24.872;2024-01-06T04:15:56;14.27;;;8.40;;
8572;SDS011;4324;42.012;24.872;2024-01-06T04:18:23;13.10;;;8.93;;
8572;SDS011;4324;42.012;24.872;2024-01-06T04:20:50;11.00;;;8.07;;
8572;SDS011;4324;42.012;24.872;2024-01-06T04:23:19;9.30;;;5.23;;
8572;SDS011;4324;42.012;24.872;2024-01-06T04:25:46;5.07;;;3.83;;
8572;SDS011;4324;42.012;24.872;2024-01-06T04:28:13;3.67;;;3.20;;
8572;SDS011;4324;42.012;24.872;2024-01-06T04:30:39;4.07;;;2.93;;
8572;SDS011;4324;42.012;24.872;2024-01-06T04:33:06;2.50;;;2.23;;
8572;SDS011;4324;42.012;24.872;2024-01-06T04:35:33;2.57;;;2.33;;
8572;SDS011;4324;42.012;24.872;2024-01-06T04:38:00;4.00;;;2.37;;
8572;SDS011;4324;42.012;24.872;2024-01-06T04:40:28;4.83;;;3.20;;
8572;SDS011;4324;42.012;24.872;2024-01-06T04:42:55;9.03;;;4.83;;
8572;SDS011;4324;42.012;24.872;2024-01-06T04:45:23;7.53;;;6.37;;
8572;SDS011;4324;42.012;24.872;2024-01-06T04:47:49;9.93;;;5.70;;
8572;SDS011;4324;42.012;24.872;2024-01-06T04:50:17;10.43;;;7.37;;
8572;SDS011;4324;42.012;24.872;2024-01-06T04:52:44;10.47;;;8.07;;
8572;SDS011;4324;42.012;24.872;2024-01-06T04:55:11;11.23;;;8.60;;
8572;SDS011;4324;42.012;24.872;2024-01-06T04:57:39;19.27;;;13.47;;
8572;SDS011;4324;42.012;24.872;2024-01-06T05:00:06;10.30;;;8.50;;
8572;SDS011;4324;42.012;24.872;2024-01-06T05:02:34;10.67;;;8.20;;
8572;SDS011;4324;42.012;24.872;2024-01-06T05:05:00;5.43;;;4.93;;
8572;SDS011;4324;42.012;24.872;2024-01-06T05:07:27;10.57;;;7.77;;
8572;SDS011;4324;42.012;24.872;2024-01-06T05:09:54;9.80;;;7.53;;
8572;SDS011;4324;42.012;24.872;2024-01-06T05:12:22;15.83;;;8.90;;
8572;SDS011;4324;42.012;24.872;2024-01-06T05:14:50;23.30;;;12.50;;
8572;SDS011;4324;42.012;24.872;2024-01-06T05:17:17;18.40;;;12.80;;
8572;SDS011;4324;42.012;24.872;2024-01-06T05:19:44;17.77;;;12.97;;
8572;SDS011;4324;42.012;24.872;2024-01-06T05:22:11;19.87;;;14.97;;
8572;SDS011;4324;42.012;24.872;2024-01-06T05:24:38;20.30;;;14.77;;
8572;SDS011;4324;42.012;24.872;2024-01-06T05:27:05;20.37;;;14.60;;
8572;SDS011;4324;42.012;24.872;2024-01-06T05:29:32;21.50;;;14.30;;
8572;SDS011;4324;42.012;24.872;2024-01-06T05:32:00;20.60;;;15.00;;
8572;SDS011;4324;42.012;24.872;2024-01-06T05:34:27;22.60;;;15.57;;
8572;SDS011;4324;42.012;24.872;2024-01-06T05:36:54;22.77;;;15.93;;
8572;SDS011;4324;42.012;24.872;2024-01-06T05:39:21;25.80;;;15.97;;
8572;SDS011;4324;42.012;24.872;2024-01-06T05:41:48;20.87;;;15.90;;
8572;SDS011;4324;42.012;24.872;2024-01-06T05:44:15;21.90;;;15.53;;
8572;SDS011;4324;42.012;24.872;2024-01-06T05:46:42;23.17;;;15.70;;
8572;SDS011;4324;42.012;24.872;2024-01-06T05:49:10;20.27;;;15.10;;
8572;SDS011;4324;42.012;24.872;2024-01-06T05:51:37;21.20;;;14.53;;
8572;SDS011;4324;42.012;24.872;2024-01-06T05:54:04;23.10;;;14.50;;
8572;SDS011;4324;42.012;24.872;2024-01-06T05:56:31;26.50;;;16.93;;
8572;SDS011;4324;42.012;24.872;2024-01-06T05:58:58;23.27;;;15.37;;
8572;SDS011;4324;42.012;24.872;2024-01-06T06:01:25;25.23;;;16.50;;
8572;SDS011;4324;42.012;24.872;2024-01-06T06:03:52;21.70;;;15.37;;
8572;SDS011;4324;42.012;24.872;2024-01-06T06:06:32;25.07;;;16.67;;
8572;SDS011;4324;42.012;24.872;2024-01-06T06:08:59;42.37;;;30.00;;
8572;SDS011;4324;42.012;24.872;2024-01-06T06:11:37;25.03;;;17.47;;
8572;SDS011;4324;42.012;24.872;2024-01-06T06:16:56;30.20;;;18.60;;
8572;SDS011;4324;42.012;24.872;2024-01-06T06:19:28;29.67;;;19.40;;
8572;SDS011;4324;42.012;24.872;2024-01-06T06:22:09;30.27;;;19.93;;
8572;SDS011;4324;42.012;24.872;2024-01-06T06:24:36;28.73;;;20.53;;
8572;SDS011;4324;42.012;24.872;2024-01-06T06:27:03;29.10;;;20.03;;
8572;SDS011;4324;42.012;24.872;2024-01-06T06:29:30;32.83;;;20.17;;
8572;SDS011;4324;42.012;24.872;2024-01-06T06:31:57;28.87;;;20.20;;
8572;SDS011;4324;42.012;24.872;2024-01-06T06:34:24;28.73;;;19.33;;
8572;SDS011;4324;42.012;24.872;2024-01-06T06:36:51;24.93;;;18.67;;
8572;SDS011;4324;42.012;24.872;2024-01-06T06:39:20;31.43;;;19.80;;
8572;SDS011;4324;42.012;24.872;2024-01-06T06:41:47;26.67;;;18.43;;
8572;SDS011;4324;42.012;24.872;2024-01-06T06:44:14;31.77;;;20.07;;
8572;SDS011;4324;42.012;24.872;2024-01-06T06:46:41;37.13;;;23.17;;
8572;SDS011;4324;42.012;24.872;2024-01-06T06:49:08;29.77;;;17.17;;
8572;SDS011;4324;42.012;24.872;2024-01-06T06:51:35;18.07;;;14.83;;
8572;SDS011;4324;42.012;24.872;2024-01-06T06:54:02;26.07;;;16.80;;
8572;SDS011;4324;42.012;24.872;2024-01-06T06:56:30;17.47;;;13.23;;
8572;SDS011;4324;42.012;24.872;2024-01-06T06:58:57;27.30;;;20.70;;
8572;SDS011;4324;42.012;24.872;2024-01-06T07:01:24;28.70;;;21.20;;
8572;SDS011;4324;42.012;24.872;2024-01-06T07:03:51;36.07;;;28.73;;
8572;SDS011;4324;42.012;24.872;2024-01-06T07:06:19;32.87;;;21.30;;
8572;SDS011;4324;42.012;24.872;2024-01-06T07:08:51;34.40;;;25.43;;
8572;SDS011;4324;42.012;24.872;2024-01-06T07:11:25;46.47;;;29.57;;
8572;SDS011;4324;42.012;24.872;2024-01-06T07:13:54;36.50;;;28.27;;
8572;SDS011;4324;42.012;24.872;2024-01-06T07:16:21;46.57;;;31.77;;
8572;SDS011;4324;42.012;24.872;2024-01-06T07:18:48;62.50;;;42.67;;
8572;SDS011;4324;42.012;24.872;2024-01-06T07:21:15;59.20;;;41.17;;
8572;SDS011;4324;42.012;24.872;2024-01-06T07:23:42;54.57;;;38.37;;
8572;SDS011;4324;42.012;24.872;2024-01-06T07:28:56;54.63;;;36.87;;
8572;SDS011;4324;42.012;24.872;2024-01-06T07:31:24;62.93;;;43.67;;
8572;SDS011;4324;42.012;24.872;2024-01-06T07:33:52;52.23;;;38.03;;
8572;SDS011;4324;42.012;24.872;2024-01-06T07:36:26;50.90;;;33.53;;
8572;SDS011;4324;42.012;24.872;2024-01-06T07:38:58;58.67;;;37.70;;
8572;SDS011;4324;42.012;24.872;2024-01-06T07:41:26;51.50;;;35.93;;
8572;SDS011;4324;42.012;24.872;2024-01-06T07:43:53;56.73;;;36.57;;
8572;SDS011;4324;42.012;24.872;2024-01-06T07:46:24;65.93;;;43.27;;
8572;SDS011;4324;42.012;24.872;2024-01-06T07:48:51;68.50;;;48.57;;
8572;SDS011;4324;42.012;24.872;2024-01-06T07:54:07;68.83;;;48.10;;
8572;SDS011;4324;42.012;24.872;2024-01-06T07:56:37;66.13;;;44.27;;
8572;SDS011;4324;42.012;24.872;2024-01-06T07:59:04;51.60;;;35.63;;
8572;SDS011;4324;42.012;24.872;2024-01-06T08:01:43;44.90;;;32.33;;
8572;SDS011;4324;42.012;24.872;2024-01-06T08:04:09;46.30;;;33.80;;
8572;SDS011;4324;42.012;24.872;2024-01-06T08:06:36;50.10;;;34.23;;
8572;SDS011;4324;42.012;24.872;2024-01-06T08:09:03;46.13;;;31.33;;
8572;SDS011;4324;42.012;24.872;2024-01-06T08:11:31;41.37;;;32.00;;
8572;SDS011;4324;42.012;24.872;2024-01-06T08:14:01;41.07;;;29.20;;
8572;SDS011;4324;42.012;24.872;2024-01-06T08:16:34;46.83;;;31.27;;
8572;SDS011;4324;42.012;24.872;2024-01-06T08:19:03;39.67;;;29.07;;
8572;SDS011;4324;42.012;24.872;2024-01-06T08:21:41;38.43;;;28.70;;
8572;SDS011;4324;42.012;24.872;2024-01-06T08:24:08;35.73;;;25.07;;
8572;SDS011;4324;42.012;24.872;2024-01-06T08:26:38;34.43;;;25.73;;
8572;SDS011;4324;42.012;24.872;2024-01-06T08:29:17;41.70;;;29.73;;
8572;SDS011;4324;42.012;24.872;2024-01-06T08:31:50;63.73;;;47.30;;
8572;SDS011;4324;42.012;24.872;2024-01-06T08:34:18;58.53;;;45.47;;
8572;SDS011;4324;42.012;24.872;2024-01-06T08:36:48;55.70;;;40.87;;
8572;SDS011;4324;42.012;24.872;2024-01-06T08:39:19;55.10;;;39.80;;
8572;SDS011;4324;42.012;24.872;2024-01-06T08:41:49;41.50;;;31.10;;
8572;SDS011;4324;42.012;24.872;2024-01-06T08:44:16;36.83;;;27.03;;
8572;SDS011;4324;42.012;24.872;2024-01-06T08:46:42;37.73;;;27.73;;
8572;SDS011;4324;42.012;24.872;2024-01-06T08:49:27;35.00;;;25.87;;
8572;SDS011;4324;42.012;24.872;2024-01-06T08:52:05;33.93;;;25.43;;
8572;SDS011;4324;42.012;24.872;2024-01-06T08:54:32;32.13;;;23.73;;
8572;SDS011;4324;42.012;24.872;2024-01-06T08:56:59;33.07;;;22.30;;
8572;SDS011;4324;42.012;24.872;2024-01-06T08:59:26;32.63;;;24.07;;
8572;SDS011;4324;42.012;24.872;2024-01-06T09:01:53;39.57;;;29.83;;
8572;SDS011;4324;42.012;24.872;2024-01-06T09:04:22;45.70;;;30.33;;
8572;SDS011;4324;42.012;24.872;2024-01-06T09:06:51;46.87;;;33.43;;
8572;SDS011;4324;42.012;24.872;2024-01-06T09:09:18;45.40;;;35.27;;
8572;SDS011;4324;42.012;24.872;2024-01-06T09:11:48;45.07;;;35.70;;
8572;SDS011;4324;42.012;24.872;2024-01-06T09:14:19;46.47;;;34.30;;
8572;SDS011;4324;42.012;24.872;2024-01-06T09:16:46;49.13;;;40.03;;
8572;SDS011;4324;42.012;24.872;2024-01-06T09:19:14;45.67;;;36.80;;
8572;SDS011;4324;42.012;24.872;2024-01-06T09:21:41;49.03;;;39.17;;
8572;SDS011;4324;42.012;24.872;2024-01-06T09:24:09;49.67;;;36.33;;
8572;SDS011;4324;42.012;24.872;2024-01-06T09:26:39;41.60;;;32.10;;
8572;SDS011;4324;42.012;24.872;2024-01-06T09:29:06;21.80;;;17.03;;
8572;SDS011;4324;42.012;24.872;2024-01-06T09:31:40;17.20;;;13.50;;
8572;SDS011;4324;42.012;24.872;2024-01-06T09:34:08;69.60;;;49.63;;
8572;SDS011;4324;42.012;24.872;2024-01-06T09:36:37;77.53;;;46.07;;
8572;SDS011;4324;42.012;24.872;2024-01-06T09:39:04;27.10;;;19.90;;
8572;SDS011;4324;42.012;24.872;2024-01-06T09:41:34;20.57;;;12.73;;
8572;SDS011;4324;42.012;24.872;2024-01-06T09:44:02;14.67;;;11.53;;
8572;SDS011;4324;42.012;24.872;2024-01-06T09:46:28;17.90;;;13.10;;
8572;SDS011;4324;42.012;24.872;2024-01-06T09:48:56;16.50;;;11.10;;
8572;SDS011;4324;42.012;24.872;2024-01-06T09:51:28;15.33;;;10.53;;
8572;SDS011;4324;42.012;24.872;2024-01-06T09:53:56;12.30;;;10.03;;
8572;SDS011;4324;42.012;24.872;2024-01-06T09:56:25;15.03;;;10.93;;
8572;SDS011;4324;42.012;24.872;2024-01-06T09:58:54;29.67;;;22.97;;
8572;SDS011;4324;42.012;24.872;2024-01-06T10:01:22;29.17;;;22.07;;
8572;SDS011;4324;42.012;24.872;2024-01-06T10:03:49;25.60;;;20.37;;
8572;SDS011;4324;42.012;24.872;2024-01-06T10:06:16;27.70;;;22.40;;
8572;SDS011;4324;42.012;24.872;2024-01-06T10:08:44;32.57;;;25.00;;
8572;SDS011;4324;42.012;24.872;2024-01-06T10:11:14;31.73;;;23.73;;
8572;SDS011;4324;42.012;24.872;2024-01-06T10:13:43;31.60;;;25.33;;
8572;SDS011;4324;42.012;24.872;2024-01-06T10:16:12;32.30;;;25.37;;
8572;SDS011;4324;42.012;24.872;2024-01-06T10:18:39;29.63;;;23.47;;
8572;SDS011;4324;42.012;24.872;2024-01-06T10:21:06;30.77;;;24.43;;
8572;SDS011;4324;42.012;24.872;2024-01-06T10:23:34;30.07;;;25.03;;
8572;SDS011;4324;42.012;24.872;2024-01-06T10:26:04;35.80;;;27.17;;
8572;SDS011;4324;42.012;24.872;2024-01-06T10:28:33;34.47;;;25.70;;
8572;SDS011;4324;42.012;24.872;2024-01-06T10:31:00;29.37;;;25.30;;
8572;SDS011;4324;42.012;24.872;2024-01-06T10:33:29;39.93;;;26.97;;
8572;SDS011;4324;42.012;24.872;2024-01-06T10:35:59;30.30;;;24.13;;
8572;SDS011;4324;42.012;24.872;2024-01-06T10:38:27;32.23;;;25.00;;
8572;SDS011;4324;42.012;24.872;2024-01-06T10:41:06;31.10;;;24.93;;
8572;SDS011;4324;42.012;24.872;2024-01-06T10:43:34;28.37;;;23.47;;
8572;SDS011;4324;42.012;24.872;2024-01-06T10:46:05;27.90;;;23.67;;
8572;SDS011;4324;42.012;24.872;2024-01-06T10:48:40;29.53;;;23.57;;
8572;SDS011;4324;42.012;24.872;2024-01-06T10:51:09;31.73;;;25.70;;
8572;SDS011;4324;42.012;24.872;2024-01-06T10:53:37;33.77;;;25.63;;
8572;SDS011;4324;42.012;24.872;2024-01-06T10:56:05;34.47;;;27.10;;
8572;SDS011;4324;42.012;24.872;2024-01-06T10:58:33;37.27;;;31.47;;
8572;SDS011;4324;42.012;24.872;2024-01-06T11:01:07;36.03;;;26.87;;
8572;SDS011;4324;42.012;24.872;2024-01-06T11:03:35;31.93;;;24.20;;
8572;SDS011;4324;42.012;24.872;2024-01-06T11:06:05;32.00;;;25.13;;
8572;SDS011;4324;42.012;24.872;2024-01-06T11:08:36;31.70;;;26.07;;
8572;SDS011;4324;42.012;24.872;2024-01-06T11:11:14;31.80;;;25.43;;
8572;SDS011;4324;42.012;24.872;2024-01-06T11:13:42;32.13;;;26.03;;
8572;SDS011;4324;42.012;24.872;2024-01-06T11:16:11;34.23;;;27.53;;
8572;SDS011;4324;42.012;24.872;2024-01-06T11:18:38;32.97;;;25.90;;
8572;SDS011;4324;42.012;24.872;2024-01-06T11:21:20;35.40;;;27.03;;
8572;SDS011;4324;42.012;24.872;2024-01-06T11:26:49;35.37;;;24.00;;
8572;SDS011;4324;42.012;24.872;2024-01-06T11:29:17;28.10;;;24.37;;
8572;SDS011;4324;42.012;24.872;2024-01-06T11:34:47;27.10;;;23.20;;
8572;SDS011;4324;42.012;24.872;2024-01-06T11:37:18;28.63;;;20.50;;
8572;SDS011;4324;42.012;24.872;2024-01-06T11:39:46;23.00;;;18.80;;
8572;SDS011;4324;42.012;24.872;2024-01-06T11:42:13;21.77;;;16.33;;
8572;SDS011;4324;42.012;24.872;2024-01-06T11:44:42;22.97;;;17.37;;
8572;SDS011;4324;42.012;24.872;2024-01-06T11:47:12;25.53;;;21.00;;
8572;SDS011;4324;42.012;24.872;2024-01-06T11:49:41;22.20;;;18.33;;
8572;SDS011;4324;42.012;24.872;2024-01-06T11:52:25;21.97;;;18.03;;
8572;SDS011;4324;42.012;24.872;2024-01-06T11:54:52;19.53;;;17.43;;
8572;SDS011;4324;42.012;24.872;2024-01-06T11:57:23;20.80;;;16.70;;
8572;SDS011;4324;42.012;24.872;2024-01-06T11:59:53;22.47;;;19.13;;
8572;SDS011;4324;42.012;24.872;2024-01-06T12:02:21;21.73;;;18.10;;
8572;SDS011;4324;42.012;24.872;2024-01-06T12:04:49;19.57;;;16.53;;
8572;SDS011;4324;42.012;24.872;2024-01-06T12:07:17;19.03;;;16.20;;
8572;SDS011;4324;42.012;24.872;2024-01-06T12:09:46;23.13;;;17.73;;
8572;SDS011;4324;42.012;24.872;2024-01-06T12:12:15;24.60;;;20.47;;
8572;SDS011;4324;42.012;24.872;2024-01-06T12:14:42;24.00;;;21.37;;
8572;SDS011;4324;42.012;24.872;2024-01-06T12:17:12;21.40;;;18.30;;
8572;SDS011;4324;42.012;24.872;2024-01-06T12:19:40;20.43;;;18.23;;
8572;SDS011;4324;42.012;24.872;2024-01-06T12:22:10;19.63;;;16.33;;
8572;SDS011;4324;42.012;24.872;2024-01-06T12:24:39;16.47;;;14.77;;
8572;SDS011;4324;42.012;24.872;2024-01-06T12:27:08;16.03;;;13.97;;
8572;SDS011;4324;42.012;24.872;2024-01-06T12:29:37;16.97;;;15.27;;
8572;SDS011;4324;42.012;24.872;2024-01-06T12:32:05;16.63;;;14.70;;
8572;SDS011;4324;42.012;24.872;2024-01-06T12:34:33;17.13;;;12.73;;
8572;SDS011;4324;42.012;24.872;2024-01-06T12:37:01;14.83;;;12.33;;
8572;SDS011;4324;42.012;24.872;2024-01-06T12:39:32;14.27;;;12.70;;
8572;SDS011;4324;42.012;24.872;2024-01-06T12:42:02;13.47;;;11.10;;
8572;SDS011;4324;42.012;24.872;2024-01-06T12:44:32;12.23;;;10.70;;
8572;SDS011;4324;42.012;24.872;2024-01-06T12:47:02;12.97;;;11.67;;
8572;SDS011;4324;42.012;24.872;2024-01-06T12:49:29;13.50;;;12.03;;
8572;SDS011;4324;42.012;24.872;2024-01-06T12:51:56;17.30;;;13.37;;
8572;SDS011;4324;42.012;24.872;2024-01-06T12:54:23;14.60;;;12.43;;
8572;SDS011;4324;42.012;24.872;2024-01-06T12:56:50;13.37;;;12.00;;
8572;SDS011;4324;42.012;24.872;2024-01-06T12:59:19;14.10;;;12.40;;
8572;SDS011;4324;42.012;24.872;2024-01-06T13:01:47;16.07;;;13.27;;
8572;SDS011;4324;42.012;24.872;2024-01-06T13:04:15;15.00;;;12.33;;
8572;SDS011;4324;42.012;24.872;2024-01-06T13:06:42;14.97;;;11.90;;
8572;SDS011;4324;42.012;24.872;2024-01-06T13:09:09;14.00;;;12.60;;
8572;SDS011;4324;42.012;24.872;2024-01-06T13:11:41;19.70;;;13.53;;
8572;SDS011;4324;42.012;24.872;2024-01-06T13:14:14;15.77;;;12.10;;
8572;SDS011;4324;42.012;24.872;2024-01-06T13:16:40;15.37;;;12.57;;
8572;SDS011;4324;42.012;24.872;2024-01-06T13:19:09;16.77;;;13.20;;
8572;SDS011;4324;42.012;24.872;2024-01-06T13:21:36;17.87;;;13.43;;
8572;SDS011;4324;42.012;24.872;2024-01-06T13:24:05;18.40;;;13.83;;
8572;SDS011;4324;42.012;24.872;2024-01-06T13:26:32;17.67;;;13.67;;
8572;SDS011;4324;42.012;24.872;2024-01-06T13:28:59;18.07;;;14.90;;
8572;SDS011;4324;42.012;24.872;2024-01-06T13:31:26;19.13;;;14.10;;
8572;SDS011;4324;42.012;24.872;2024-01-06T13:33:54;16.90;;;15.20;;
8572;SDS011;4324;42.012;24.872;2024-01-06T13:36:22;17.27;;;15.00;;
8572;SDS011;4324;42.012;24.872;2024-01-06T13:39:18;18.03;;;15.57;;
8572;SDS011;4324;42.012;24.872;2024-01-06T13:41:46;20.37;;;17.00;;
8572;SDS011;4324;42.012;24.872;2024-01-06T13:44:14;21.60;;;17.07;;
8572;SDS011;4324;42.012;24.872;2024-01-06T13:46:42;17.17;;;15.37;;
8572;SDS011;4324;42.012;24.872;2024-01-06T13:49:10;18.63;;;16.47;;
8572;SDS011;4324;42.012;24.872;2024-01-06T13:51:39;18.17;;;15.83;;
8572;SDS011;4324;42.012;24.872;2024-01-06T13:54:06;18.80;;;16.80;;
8572;SDS011;4324;42.012;24.872;2024-01-06T13:56:39;17.67;;;15.77;;
8572;SDS011;4324;42.012;24.872;2024-01-06T13:59:06;18.70;;;16.70;;
8572;SDS011;4324;42.012;24.872;2024-01-06T14:01:34;19.90;;;16.97;;
8572;SDS011;4324;42.012;24.872;2024-01-06T14:04:01;17.90;;;15.40;;
8572;SDS011;4324;42.012;24.872;2024-01-06T14:06:28;21.27;;;16.00;;
8572;SDS011;4324;42.012;24.872;2024-01-06T14:08:57;15.67;;;14.13;;
8572;SDS011;4324;42.012;24.872;2024-01-06T14:11:24;17.07;;;14.67;;
8572;SDS011;4324;42.012;24.872;2024-01-06T14:13:55;19.70;;;14.70;;
8572;SDS011;4324;42.012;24.872;2024-01-06T14:16:25;16.80;;;14.50;;
8572;SDS011;4324;42.012;24.872;2024-01-06T14:18:52;17.47;;;14.47;;
8572;SDS011;4324;42.012;24.872;2024-01-06T14:21:19;16.80;;;13.87;;
8572;SDS011;4324;42.012;24.872;2024-01-06T14:23:46;16.03;;;13.57;;
8572;SDS011;4324;42.012;24.872;2024-01-06T14:26:16;16.70;;;12.20;;
8572;SDS011;4324;42.012;24.872;2024-01-06T14:28:53;13.43;;;11.17;;
8572;SDS011;4324;42.012;24.872;2024-01-06T14:31:31;15.03;;;10.93;;
8572;SDS011;4324;42.012;24.872;2024-01-06T14:37:55;16.47;;;13.00;;
8572;SDS011;4324;42.012;24.872;2024-01-06T14:40:23;16.40;;;13.07;;
8572;SDS011;4324;42.012;24.872;2024-01-06T14:43:16;16.60;;;11.50;;
8572;SDS011;4324;42.012;24.872;2024-01-06T14:45:42;13.00;;;9.73;;
8572;SDS011;4324;42.012;24.872;2024-01-06T14:48:09;11.93;;;9.43;;
8572;SDS011;4324;42.012;24.872;2024-01-06T14:50:36;14.03;;;10.33;;
8572;SDS011;4324;42.012;24.872;2024-01-06T14:53:03;10.80;;;9.20;;
8572;SDS011;4324;42.012;24.872;2024-01-06T14:55:31;11.47;;;9.40;;
8572;SDS011;4324;42.012;24.872;2024-01-06T14:58:04;13.70;;;10.27;;
8572;SDS011;4324;42.012;24.872;2024-01-06T15:00:35;14.23;;;10.40;;
8572;SDS011;4324;42.012;24.872;2024-01-06T15:03:02;13.50;;;9.67;;